sensor_id;sensor_type;location;lat;lon;timestamp;P1;durP1;ratioP1;P2;durP2;ratioP2
7563;SDS011;3823;53.586;10.040;2023-04-23T04:02:02;14.68;;;11.27;;
7563;SDS011;3823;53.586;10.040;2023-04-23T04:04:28;12.63;;;10.73;;
7563;SDS011;3823;53.586;10.040;2023-04-23T04:06:55;15.52;;;11.88;;
7563;SDS011;3823;53.586;10.040;2023-04-23T04:09:21;16.27;;;11.45;;
7563;SDS011;3823;53.586;10.040;2023-04-23T04:11:47;15.07;;;10.68;;
7563;SDS011;3823;53.586;10.040;2023-04-23T04:14:13;14.50;;;11.05;;
7563;SDS011;3823;53.586;10.040;2023-04-23T04:16:38;17.38;;;11.48;;
7563;SDS011;3823;53.586;10.040;2023-04-23T04:19:04;13.43;;;10.93;;
7563;SDS011;3823;53.586;10.040;2023-04-23T04:21:30;13.32;;;11.50;;
7563;SDS011;3823;53.586;10.040;2023-04-23T04:23:57;13.32;;;11.10;;
7563;SDS011;3823;53.586;10.040;2023-04-23T04:26:25;14.70;;;10.63;;
7563;SDS011;3823;53.586;10.040;2023-04-23T04:28:51;13.60;;;10.18;;
7563;SDS011;3823;53.586;10.040;2023-04-23T04:31:17;12.23;;;10.32;;
7563;SDS011;3823;53.586;10.040;2023-04-23T04:33:44;14.07;;;10.88;;
7563;SDS011;3823;53.586;10.040;2023-04-23T04:36:10;15.25;;;11.05;;
7563;SDS011;3823;53.586;10.040;2023-04-23T04:38:37;12.95;;;11.20;;
7563;SDS011;3823;53.586;10.040;2023-04-23T04:41:03;14.55;;;9.88;;
7563;SDS011;3823;53.586;10.040;2023-04-23T04:43:29;11.60;;;9.23;;
7563;SDS011;3823;53.586;10.040;2023-04-23T04:45:55;11.00;;;9.70;;
7563;SDS011;3823;53.586;10.040;2023-04-23T04:48:23;11.32;;;9.55;;
7563;SDS011;3823;53.586;10.040;2023-04-23T04:50:49;13.02;;;9.48;;
7563;SDS011;3823;53.586;10.040;2023-04-23T04:53:15;14.00;;;10.00;;
7563;SDS011;3823;53.586;10.040;2023-04-23T04:55:40;15.40;;;9.60;;
7563;SDS011;3823;53.586;10.040;2023-04-23T04:58:06;9.70;;;8.55;;
7563;SDS011;3823;53.586;10.040;2023-04-23T05:00:32;10.93;;;9.57;;
7563;SDS011;3823;53.586;10.040;2023-04-23T05:02:58;11.90;;;9.35;;
7563;SDS011;3823;53.586;10.040;2023-04-23T05:05:25;10.90;;;8.63;;
7563;SDS011;3823;53.586;10.040;2023-04-23T05:07:51;10.13;;;9.10;;
7563;SDS011;3823;53.586;10.040;2023-04-23T05:10:18;9.18;;;8.27;;
7563;SDS011;3823;53.586;10.040;2023-04-23T05:12:44;10.95;;;8.85;;
7563;SDS011;3823;53.586;10.040;2023-04-23T05:15:11;10.70;;;9.60;;
7563;SDS011;3823;53.586;10.040;2023-04-23T05:17:37;13.70;;;10.05;;
7563;SDS011;3823;53.586;10.040;2023-04-23T05:20:04;12.02;;;8.73;;
7563;SDS011;3823;53.586;10.040;2023-04-23T05:22:31;9.23;;;8.23;;
7563;SDS011;3823;53.586;10.040;2023-04-23T05:24:56;8.98;;;8.00;;
7563;SDS011;3823;53.586;10.040;2023-04-23T05:27:22;8.25;;;7.45;;
7563;SDS011;3823;53.586;10.040;2023-04-23T05:29:47;8.45;;;7.55;;
7563;SDS011;3823;53.586;10.040;2023-04-23T05:32:13;8.25;;;6.88;;
7563;SDS011;3823;53.586;10.040;2023-04-23T05:34:39;8.82;;;6.70;;
7563;SDS011;3823;53.586;10.040;2023-04-23T05:37:04;7.25;;;6.20;;
7563;SDS011;3823;53.586;10.040;2023-04-23T05:39:30;7.45;;;5.97;;
7563;SDS011;3823;53.586;10.040;2023-04-23T05:41:56;9.60;;;6.25;;
7563;SDS011;3823;53.586;10.040;2023-04-23T05:44:22;7.15;;;5.47;;
7563;SDS011;3823;53.586;10.040;2023-04-23T05:46:47;8.73;;;5.82;;
7563;SDS011;3823;53.586;10.040;2023-04-23T05:49:13;6.45;;;5.78;;
7563;SDS011;3823;53.586;10.040;2023-04-23T05:51:38;6.57;;;5.47;;
7563;SDS011;3823;53.586;10.040;2023-04-23T05:54:04;7.55;;;5.30;;
7563;SDS011;3823;53.586;10.040;2023-04-23T05:56:30;6.47;;;5.88;;
7563;SDS011;3823;53.586;10.040;2023-04-23T05:58:55;8.93;;;6.78;;
7563;SDS011;3823;53.586;10.040;2023-04-23T06:01:21;11.23;;;7.50;;
7563;SDS011;3823;53.586;10.040;2023-04-23T06:03:47;7.95;;;6.90;;
7563;SDS011;3823;53.586;10.040;2023-04-23T06:06:13;8.23;;;5.90;;
7563;SDS011;3823;53.586;10.040;2023-04-23T06:08:38;6.45;;;5.85;;
7563;SDS011;3823;53.586;10.040;2023-04-23T06:11:04;7.70;;;6.90;;
7563;SDS011;3823;53.586;10.040;2023-04-23T06:13:30;6.88;;;6.25;;
7563;SDS011;3823;53.586;10.040;2023-04-23T06:15:56;7.88;;;5.82;;
7563;SDS011;3823;53.586;10.040;2023-04-23T06:18:22;8.00;;;6.40;;
7563;SDS011;3823;53.586;10.040;2023-04-23T06:20:48;8.25;;;6.32;;
7563;SDS011;3823;53.586;10.040;2023-04-23T06:23:15;6.93;;;6.03;;
7563;SDS011;3823;53.586;10.040;2023-04-23T06:25:41;7.05;;;5.25;;
7563;SDS011;3823;53.586;10.040;2023-04-23T06:28:07;7.80;;;5.75;;
7563;SDS011;3823;53.586;10.040;2023-04-23T06:30:32;5.88;;;5.25;;
7563;SDS011;3823;53.586;10.040;2023-04-23T06:32:58;6.38;;;5.55;;
7563;SDS011;3823;53.586;10.040;2023-04-23T06:35:25;5.90;;;4.93;;
7563;SDS011;3823;53.586;10.040;2023-04-23T06:37:50;5.68;;;4.97;;
7563;SDS011;3823;53.586;10.040;2023-04-23T06:40:16;5.32;;;4.63;;
7563;SDS011;3823;53.586;10.040;2023-04-23T06:42:41;10.23;;;5.00;;
7563;SDS011;3823;53.586;10.040;2023-04-23T06:45:07;7.40;;;5.13;;
7563;SDS011;3823;53.586;10.040;2023-04-23T06:47:33;5.18;;;4.68;;
7563;SDS011;3823;53.586;10.040;2023-04-23T06:49:58;5.03;;;4.50;;
7563;SDS011;3823;53.586;10.040;2023-04-23T06:52:24;5.80;;;4.75;;
7563;SDS011;3823;53.586;10.040;2023-04-23T06:54:50;5.53;;;4.97;;
7563;SDS011;3823;53.586;10.040;2023-04-23T06:57:16;5.55;;;4.80;;
7563;SDS011;3823;53.586;10.040;2023-04-23T06:59:41;11.88;;;6.65;;
7563;SDS011;3823;53.586;10.040;2023-04-23T07:02:07;4.15;;;3.55;;
7563;SDS011;3823;53.586;10.040;2023-04-23T07:04:32;5.32;;;4.88;;
7563;SDS011;3823;53.586;10.040;2023-04-23T07:06:58;6.43;;;4.45;;
7563;SDS011;3823;53.586;10.040;2023-04-23T07:09:24;6.70;;;4.97;;
7563;SDS011;3823;53.586;10.040;2023-04-23T07:11:50;7.28;;;4.88;;
7563;SDS011;3823;53.586;10.040;2023-04-23T07:14:16;10.48;;;7.05;;
7563;SDS011;3823;53.586;10.040;2023-04-23T07:16:42;6.80;;;6.10;;
7563;SDS011;3823;53.586;10.040;2023-04-23T07:19:07;7.00;;;5.80;;
7563;SDS011;3823;53.586;10.040;2023-04-23T07:21:33;6.35;;;5.72;;
7563;SDS011;3823;53.586;10.040;2023-04-23T07:23:58;10.02;;;6.13;;
7563;SDS011;3823;53.586;10.040;2023-04-23T07:26:24;7.63;;;6.93;;
7563;SDS011;3823;53.586;10.040;2023-04-23T07:28:51;7.30;;;6.15;;
7563;SDS011;3823;53.586;10.040;2023-04-23T07:31:17;7.47;;;6.20;;
7563;SDS011;3823;53.586;10.040;2023-04-23T07:33:43;6.18;;;5.68;;
7563;SDS011;3823;53.586;10.040;2023-04-23T07:36:09;6.03;;;5.47;;
7563;SDS011;3823;53.586;10.040;2023-04-23T07:38:35;9.52;;;5.78;;
7563;SDS011;3823;53.586;10.040;2023-04-23T07:41:00;8.57;;;5.97;;
7563;SDS011;3823;53.586;10.040;2023-04-23T07:43:26;6.45;;;5.85;;
7563;SDS011;3823;53.586;10.040;2023-04-23T07:45:51;7.78;;;6.30;;
7563;SDS011;3823;53.586;10.040;2023-04-23T07:48:17;8.13;;;6.13;;
7563;SDS011;3823;53.586;10.040;2023-04-23T07:50:43;7.22;;;5.57;;
7563;SDS011;3823;53.586;10.040;2023-04-23T07:53:08;8.00;;;5.32;;
7563;SDS011;3823;53.586;10.040;2023-04-23T07:55:34;9.70;;;6.57;;
7563;SDS011;3823;53.586;10.040;2023-04-23T07:57:59;6.80;;;5.82;;
7563;SDS011;3823;53.586;10.040;2023-04-23T08:00:25;6.32;;;5.20;;
7563;SDS011;3823;53.586;10.040;2023-04-23T08:02:51;5.75;;;5.15;;
7563;SDS011;3823;53.586;10.040;2023-04-23T08:05:17;6.60;;;5.90;;
7563;SDS011;3823;53.586;10.040;2023-04-23T08:07:43;7.25;;;5.72;;
7563;SDS011;3823;53.586;10.040;2023-04-23T08:10:08;8.10;;;5.90;;
7563;SDS011;3823;53.586;10.040;2023-04-23T08:12:34;6.15;;;5.55;;
7563;SDS011;3823;53.586;10.040;2023-04-23T08:15:00;5.60;;;5.05;;
7563;SDS011;3823;53.586;10.040;2023-04-23T08:17:26;6.78;;;5.38;;
7563;SDS011;3823;53.586;10.040;2023-04-23T08:19:52;7.05;;;6.35;;
7563;SDS011;3823;53.586;10.040;2023-04-23T08:22:17;10.05;;;5.75;;
7563;SDS011;3823;53.586;10.040;2023-04-23T08:24:43;8.05;;;5.93;;
7563;SDS011;3823;53.586;10.040;2023-04-23T08:27:10;7.95;;;6.18;;
7563;SDS011;3823;53.586;10.040;2023-04-23T08:29:36;8.93;;;6.38;;
7563;SDS011;3823;53.586;10.040;2023-04-23T08:32:01;12.63;;;6.45;;
7563;SDS011;3823;53.586;10.040;2023-04-23T08:34:27;7.43;;;6.28;;
7563;SDS011;3823;53.586;10.040;2023-04-23T08:36:52;9.48;;;6.75;;
7563;SDS011;3823;53.586;10.040;2023-04-23T08:39:18;8.35;;;7.55;;
7563;SDS011;3823;53.586;10.040;2023-04-23T08:41:44;8.48;;;6.38;;
7563;SDS011;3823;53.586;10.040;2023-04-23T08:44:23;10.65;;;9.55;;
7563;SDS011;3823;53.586;10.040;2023-04-23T08:46:49;13.05;;;11.10;;
7563;SDS011;3823;53.586;10.040;2023-04-23T08:49:18;34.50;;;22.17;;
7563;SDS011;3823;53.586;10.040;2023-04-23T08:51:48;16.25;;;12.85;;
7563;SDS011;3823;53.586;10.040;2023-04-23T08:54:17;11.77;;;10.38;;
7563;SDS011;3823;53.586;10.040;2023-04-23T08:56:48;10.10;;;9.07;;
7563;SDS011;3823;53.586;10.040;2023-04-23T08:59:15;10.30;;;7.90;;
7563;SDS011;3823;53.586;10.040;2023-04-23T09:01:42;10.85;;;7.38;;
7563;SDS011;3823;53.586;10.040;2023-04-23T09:04:08;10.93;;;7.53;;
7563;SDS011;3823;53.586;10.040;2023-04-23T09:06:34;8.80;;;7.00;;
7563;SDS011;3823;53.586;10.040;2023-04-23T09:09:00;7.15;;;6.35;;
7563;SDS011;3823;53.586;10.040;2023-04-23T09:11:28;6.78;;;6.15;;
7563;SDS011;3823;53.586;10.040;2023-04-23T09:13:55;7.07;;;6.32;;
7563;SDS011;3823;53.586;10.040;2023-04-23T09:16:21;6.93;;;5.82;;
7563;SDS011;3823;53.586;10.040;2023-04-23T09:18:47;8.43;;;5.85;;
7563;SDS011;3823;53.586;10.040;2023-04-23T09:21:15;6.63;;;6.03;;
7563;SDS011;3823;53.586;10.040;2023-04-23T09:23:40;7.68;;;5.80;;
7563;SDS011;3823;53.586;10.040;2023-04-23T09:26:07;9.55;;;6.78;;
7563;SDS011;3823;53.586;10.040;2023-04-23T09:28:33;6.78;;;5.65;;
7563;SDS011;3823;53.586;10.040;2023-04-23T09:31:05;7.45;;;6.65;;
7563;SDS011;3823;53.586;10.040;2023-04-23T09:33:33;7.63;;;6.43;;
7563;SDS011;3823;53.586;10.040;2023-04-23T09:36:04;7.75;;;6.85;;
7563;SDS011;3823;53.586;10.040;2023-04-23T09:38:34;6.63;;;6.03;;
7563;SDS011;3823;53.586;10.040;2023-04-23T09:41:18;7.55;;;6.68;;
7563;SDS011;3823;53.586;10.040;2023-04-23T09:43:46;7.35;;;6.25;;
7563;SDS011;3823;53.586;10.040;2023-04-23T09:46:12;7.68;;;6.90;;
7563;SDS011;3823;53.586;10.040;2023-04-23T09:48:41;7.82;;;6.80;;
7563;SDS011;3823;53.586;10.040;2023-04-23T09:51:07;18.98;;;11.82;;
7563;SDS011;3823;53.586;10.040;2023-04-23T09:53:42;13.88;;;7.10;;
7563;SDS011;3823;53.586;10.040;2023-04-23T09:56:08;9.32;;;6.63;;
7563;SDS011;3823;53.586;10.040;2023-04-23T09:58:33;10.65;;;6.75;;
7563;SDS011;3823;53.586;10.040;2023-04-23T10:01:06;8.35;;;6.10;;
7563;SDS011;3823;53.586;10.040;2023-04-23T10:03:32;7.35;;;6.65;;
7563;SDS011;3823;53.586;10.040;2023-04-23T10:05:58;7.65;;;6.90;;
7563;SDS011;3823;53.586;10.040;2023-04-23T10:08:23;8.00;;;6.93;;
7563;SDS011;3823;53.586;10.040;2023-04-23T10:10:50;7.43;;;6.38;;
7563;SDS011;3823;53.586;10.040;2023-04-23T10:13:16;12.52;;;7.07;;
7563;SDS011;3823;53.586;10.040;2023-04-23T10:15:42;7.13;;;6.40;;
7563;SDS011;3823;53.586;10.040;2023-04-23T10:18:10;7.53;;;6.25;;
7563;SDS011;3823;53.586;10.040;2023-04-23T10:20:38;8.88;;;7.78;;
7563;SDS011;3823;53.586;10.040;2023-04-23T10:23:05;5.63;;;5.13;;
7563;SDS011;3823;53.586;10.040;2023-04-23T10:25:34;7.55;;;6.57;;
7563;SDS011;3823;53.586;10.040;2023-04-23T10:28:02;6.50;;;5.80;;
7563;SDS011;3823;53.586;10.040;2023-04-23T10:30:30;8.40;;;7.60;;
7563;SDS011;3823;53.586;10.040;2023-04-23T10:32:56;7.40;;;6.70;;
7563;SDS011;3823;53.586;10.040;2023-04-23T10:35:24;9.05;;;7.57;;
7563;SDS011;3823;53.586;10.040;2023-04-23T10:37:50;8.57;;;7.60;;
7563;SDS011;3823;53.586;10.040;2023-04-23T10:40:18;8.80;;;7.90;;
7563;SDS011;3823;53.586;10.040;2023-04-23T10:42:48;8.98;;;7.75;;
7563;SDS011;3823;53.586;10.040;2023-04-23T10:45:14;10.75;;;7.95;;
7563;SDS011;3823;53.586;10.040;2023-04-23T10:47:44;12.57;;;7.07;;
7563;SDS011;3823;53.586;10.040;2023-04-23T10:50:17;10.68;;;8.60;;
7563;SDS011;3823;53.586;10.040;2023-04-23T10:52:44;8.55;;;7.65;;
7563;SDS011;3823;53.586;10.040;2023-04-23T10:55:15;10.50;;;8.32;;
7563;SDS011;3823;53.586;10.040;2023-04-23T11:00:24;9.40;;;8.43;;
7563;SDS011;3823;53.586;10.040;2023-04-23T11:02:50;14.43;;;11.40;;
7563;SDS011;3823;53.586;10.040;2023-04-23T11:05:17;8.98;;;8.02;;
7563;SDS011;3823;53.586;10.040;2023-04-23T11:07:44;9.88;;;8.88;;
7563;SDS011;3823;53.586;10.040;2023-04-23T11:10:30;11.30;;;9.02;;
7563;SDS011;3823;53.586;10.040;2023-04-23T11:12:57;12.55;;;11.25;;
7563;SDS011;3823;53.586;10.040;2023-04-23T11:15:42;9.55;;;8.52;;
7563;SDS011;3823;53.586;10.040;2023-04-23T11:18:08;9.63;;;8.60;;
7563;SDS011;3823;53.586;10.040;2023-04-23T11:20:35;11.02;;;7.55;;
7563;SDS011;3823;53.586;10.040;2023-04-23T11:23:01;14.45;;;9.18;;
7563;SDS011;3823;53.586;10.040;2023-04-23T11:25:30;10.93;;;8.65;;
7563;SDS011;3823;53.586;10.040;2023-04-23T11:27:56;9.90;;;8.20;;
7563;SDS011;3823;53.586;10.040;2023-04-23T11:30:23;10.43;;;9.40;;
7563;SDS011;3823;53.586;10.040;2023-04-23T11:32:51;8.82;;;8.02;;
7563;SDS011;3823;53.586;10.040;2023-04-23T11:35:19;9.60;;;8.50;;
7563;SDS011;3823;53.586;10.040;2023-04-23T11:37:46;11.23;;;9.48;;
7563;SDS011;3823;53.586;10.040;2023-04-23T11:40:13;11.60;;;10.50;;
7563;SDS011;3823;53.586;10.040;2023-04-23T11:42:44;11.32;;;9.15;;
7563;SDS011;3823;53.586;10.040;2023-04-23T11:45:15;10.13;;;9.13;;
7563;SDS011;3823;53.586;10.040;2023-04-23T11:47:52;10.43;;;9.13;;
7563;SDS011;3823;53.586;10.040;2023-04-23T11:50:28;9.60;;;8.50;;
7563;SDS011;3823;53.586;10.040;2023-04-23T11:52:56;10.90;;;9.35;;
7563;SDS011;3823;53.586;10.040;2023-04-23T11:55:28;9.43;;;8.63;;
7563;SDS011;3823;53.586;10.040;2023-04-23T11:57:53;9.40;;;7.93;;
7563;SDS011;3823;53.586;10.040;2023-04-23T12:00:21;9.25;;;7.93;;
7563;SDS011;3823;53.586;10.040;2023-04-23T12:02:55;9.68;;;8.68;;
7563;SDS011;3823;53.586;10.040;2023-04-23T12:05:28;11.50;;;7.65;;
7563;SDS011;3823;53.586;10.040;2023-04-23T12:08:10;7.32;;;6.63;;
7563;SDS011;3823;53.586;10.040;2023-04-23T12:10:40;9.85;;;8.77;;
7563;SDS011;3823;53.586;10.040;2023-04-23T12:13:14;7.30;;;6.57;;
7563;SDS011;3823;53.586;10.040;2023-04-23T12:15:43;8.05;;;7.25;;
7563;SDS011;3823;53.586;10.040;2023-04-23T12:18:10;7.32;;;6.68;;
7563;SDS011;3823;53.586;10.040;2023-04-23T12:20:35;6.32;;;5.82;;
7563;SDS011;3823;53.586;10.040;2023-04-23T12:23:04;7.05;;;6.35;;
7563;SDS011;3823;53.586;10.040;2023-04-23T12:25:31;10.05;;;7.13;;
7563;SDS011;3823;53.586;10.040;2023-04-23T12:27:57;8.00;;;7.20;;
7563;SDS011;3823;53.586;10.040;2023-04-23T12:30:27;6.93;;;6.30;;
7563;SDS011;3823;53.586;10.040;2023-04-23T12:33:03;9.35;;;6.00;;
7563;SDS011;3823;53.586;10.040;2023-04-23T12:35:40;7.35;;;6.65;;
7563;SDS011;3823;53.586;10.040;2023-04-23T12:38:08;7.20;;;6.47;;
7563;SDS011;3823;53.586;10.040;2023-04-23T12:40:50;7.78;;;7.07;;
7563;SDS011;3823;53.586;10.040;2023-04-23T12:43:16;7.80;;;5.97;;
7563;SDS011;3823;53.586;10.040;2023-04-23T12:45:41;6.55;;;6.05;;
7563;SDS011;3823;53.586;10.040;2023-04-23T12:48:07;9.32;;;6.65;;
7563;SDS011;3823;53.586;10.040;2023-04-23T12:50:33;6.88;;;5.97;;
7563;SDS011;3823;53.586;10.040;2023-04-23T12:52:58;6.40;;;5.90;;
7563;SDS011;3823;53.586;10.040;2023-04-23T12:55:24;8.75;;;6.72;;
7563;SDS011;3823;53.586;10.040;2023-04-23T12:57:50;7.35;;;6.65;;
7563;SDS011;3823;53.586;10.040;2023-04-23T13:00:15;5.75;;;5.28;;
7563;SDS011;3823;53.586;10.040;2023-04-23T13:02:41;6.90;;;6.22;;
7563;SDS011;3823;53.586;10.040;2023-04-23T13:05:07;6.82;;;6.22;;
7563;SDS011;3823;53.586;10.040;2023-04-23T13:07:33;5.43;;;4.93;;
7563;SDS011;3823;53.586;10.040;2023-04-23T13:09:59;6.20;;;5.60;;
7563;SDS011;3823;53.586;10.040;2023-04-23T13:12:24;7.13;;;5.30;;
7563;SDS011;3823;53.586;10.040;2023-04-23T13:14:50;5.35;;;4.85;;
7563;SDS011;3823;53.586;10.040;2023-04-23T13:17:16;7.28;;;6.22;;
7563;SDS011;3823;53.586;10.040;2023-04-23T13:19:41;4.75;;;4.35;;
7563;SDS011;3823;53.586;10.040;2023-04-23T13:22:09;6.03;;;5.13;;
7563;SDS011;3823;53.586;10.040;2023-04-23T13:24:34;5.80;;;5.00;;
7563;SDS011;3823;53.586;10.040;2023-04-23T13:27:00;5.18;;;4.78;;
7563;SDS011;3823;53.586;10.040;2023-04-23T13:29:26;5.75;;;5.20;;
7563;SDS011;3823;53.586;10.040;2023-04-23T13:31:55;22.50;;;18.13;;
7563;SDS011;3823;53.586;10.040;2023-04-23T13:34:22;5.40;;;4.43;;
7563;SDS011;3823;53.586;10.040;2023-04-23T13:36:48;6.35;;;4.72;;
7563;SDS011;3823;53.586;10.040;2023-04-23T13:39:14;4.55;;;4.15;;
7563;SDS011;3823;53.586;10.040;2023-04-23T13:41:40;4.60;;;4.30;;
7563;SDS011;3823;53.586;10.040;2023-04-23T13:44:06;4.72;;;3.85;;
7563;SDS011;3823;53.586;10.040;2023-04-23T13:46:31;4.53;;;4.00;;
7563;SDS011;3823;53.586;10.040;2023-04-23T13:48:57;4.20;;;3.50;;
7563;SDS011;3823;53.586;10.040;2023-04-23T13:51:24;3.78;;;3.47;;
7563;SDS011;3823;53.586;10.040;2023-04-23T13:53:49;4.30;;;3.28;;
7563;SDS011;3823;53.586;10.040;2023-04-23T13:56:15;3.58;;;3.28;;
7563;SDS011;3823;53.586;10.040;2023-04-23T13:58:40;2.90;;;2.70;;
7563;SDS011;3823;53.586;10.040;2023-04-23T14:01:09;2.72;;;2.53;;
7563;SDS011;3823;53.586;10.040;2023-04-23T14:03:37;3.63;;;3.33;;
7563;SDS011;3823;53.586;10.040;2023-04-23T14:06:02;3.05;;;2.85;;
7563;SDS011;3823;53.586;10.040;2023-04-23T14:08:28;4.57;;;3.40;;
7563;SDS011;3823;53.586;10.040;2023-04-23T14:10:54;5.60;;;3.20;;
7563;SDS011;3823;53.586;10.040;2023-04-23T14:13:19;3.97;;;2.67;;
7563;SDS011;3823;53.586;10.040;2023-04-23T14:15:46;3.50;;;3.30;;
7563;SDS011;3823;53.586;10.040;2023-04-23T14:18:12;3.20;;;2.88;;
7563;SDS011;3823;53.586;10.040;2023-04-23T14:20:37;3.10;;;2.90;;
7563;SDS011;3823;53.586;10.040;2023-04-23T14:23:10;6.35;;;3.65;;
7563;SDS011;3823;53.586;10.040;2023-04-23T14:25:58;4.28;;;3.05;;
7563;SDS011;3823;53.586;10.040;2023-04-23T14:28:32;3.17;;;2.78;;
7563;SDS011;3823;53.586;10.040;2023-04-23T14:31:05;3.47;;;3.17;;
7563;SDS011;3823;53.586;10.040;2023-04-23T14:33:31;2.65;;;2.45;;
7563;SDS011;3823;53.586;10.040;2023-04-23T14:35:57;3.88;;;2.60;;
7563;SDS011;3823;53.586;10.040;2023-04-23T14:38:22;4.90;;;4.28;;
7563;SDS011;3823;53.586;10.040;2023-04-23T14:40:48;8.13;;;5.13;;
7563;SDS011;3823;53.586;10.040;2023-04-23T14:43:13;6.80;;;5.00;;
7563;SDS011;3823;53.586;10.040;2023-04-23T14:45:39;5.97;;;4.97;;
7563;SDS011;3823;53.586;10.040;2023-04-23T14:48:05;4.05;;;3.75;;
7563;SDS011;3823;53.586;10.040;2023-04-23T14:50:30;3.28;;;2.97;;
7563;SDS011;3823;53.586;10.040;2023-04-23T14:52:56;2.95;;;2.30;;
7563;SDS011;3823;53.586;10.040;2023-04-23T14:55:22;3.85;;;3.20;;
7563;SDS011;3823;53.586;10.040;2023-04-23T14:57:48;3.72;;;3.42;;
7563;SDS011;3823;53.586;10.040;2023-04-23T15:00:14;4.50;;;4.10;;
7563;SDS011;3823;53.586;10.040;2023-04-23T15:02:40;5.13;;;4.43;;
7563;SDS011;3823;53.586;10.040;2023-04-23T15:05:09;4.63;;;4.20;;
7563;SDS011;3823;53.586;10.040;2023-04-23T15:07:36;3.25;;;3.05;;
7563;SDS011;3823;53.586;10.040;2023-04-23T15:10:03;4.53;;;4.13;;
7563;SDS011;3823;53.586;10.040;2023-04-23T15:12:47;5.20;;;4.35;;
7563;SDS011;3823;53.586;10.040;2023-04-23T15:15:27;4.38;;;4.07;;
7563;SDS011;3823;53.586;10.040;2023-04-23T15:18:02;3.38;;;3.17;;
7563;SDS011;3823;53.586;10.040;2023-04-23T15:20:29;4.03;;;3.63;;
7563;SDS011;3823;53.586;10.040;2023-04-23T15:22:54;10.05;;;4.57;;
7563;SDS011;3823;53.586;10.040;2023-04-23T15:25:20;3.80;;;3.50;;
7563;SDS011;3823;53.586;10.040;2023-04-23T15:27:45;2.88;;;2.58;;
7563;SDS011;3823;53.586;10.040;2023-04-23T15:30:11;3.53;;;2.90;;
7563;SDS011;3823;53.586;10.040;2023-04-23T15:32:37;3.13;;;2.53;;
7563;SDS011;3823;53.586;10.040;2023-04-23T15:35:02;3.15;;;2.58;;
7563;SDS011;3823;53.586;10.040;2023-04-23T15:37:28;3.30;;;3.00;;
7563;SDS011;3823;53.586;10.040;2023-04-23T15:39:55;2.83;;;2.63;;
7563;SDS011;3823;53.586;10.040;2023-04-23T15:42:22;3.40;;;3.10;;
7563;SDS011;3823;53.586;10.040;2023-04-23T15:44:49;4.78;;;3.42;;
7563;SDS011;3823;53.586;10.040;2023-04-23T15:47:18;14.77;;;11.77;;
7563;SDS011;3823;53.586;10.040;2023-04-23T15:49:44;4.82;;;3.40;;
7563;SDS011;3823;53.586;10.040;2023-04-23T15:52:10;2.55;;;2.35;;
7563;SDS011;3823;53.586;10.040;2023-04-23T15:54:36;2.60;;;2.40;;
7563;SDS011;3823;53.586;10.040;2023-04-23T15:57:01;2.03;;;1.92;;
7563;SDS011;3823;53.586;10.040;2023-04-23T15:59:27;2.72;;;2.30;;
7563;SDS011;3823;53.586;10.040;2023-04-23T16:01:53;2.63;;;2.42;;
7563;SDS011;3823;53.586;10.040;2023-04-23T16:04:18;3.22;;;2.08;;
7563;SDS011;3823;53.586;10.040;2023-04-23T16:06:44;2.75;;;2.10;;
7563;SDS011;3823;53.586;10.040;2023-04-23T16:09:09;2.78;;;2.58;;
7563;SDS011;3823;53.586;10.040;2023-04-23T16:11:36;2.70;;;2.50;;
7563;SDS011;3823;53.586;10.040;2023-04-23T16:14:02;2.47;;;2.17;;
7563;SDS011;3823;53.586;10.040;2023-04-23T16:16:28;2.38;;;2.15;;
7563;SDS011;3823;53.586;10.040;2023-04-23T16:18:54;2.85;;;2.47;;
7563;SDS011;3823;53.586;10.040;2023-04-23T16:21:20;1.92;;;1.83;;
7563;SDS011;3823;53.586;10.040;2023-04-23T16:23:45;5.75;;;2.72;;
7563;SDS011;3823;53.586;10.040;2023-04-23T16:26:11;2.42;;;2.22;;
7563;SDS011;3823;53.586;10.040;2023-04-23T16:28:36;2.20;;;2.00;;
7563;SDS011;3823;53.586;10.040;2023-04-23T16:31:02;3.20;;;2.17;;
7563;SDS011;3823;53.586;10.040;2023-04-23T16:33:28;2.97;;;2.47;;
7563;SDS011;3823;53.586;10.040;2023-04-23T16:35:54;3.83;;;2.97;;
7563;SDS011;3823;53.586;10.040;2023-04-23T16:38:21;4.63;;;3.63;;
7563;SDS011;3823;53.586;10.040;2023-04-23T16:40:47;8.18;;;3.03;;
7563;SDS011;3823;53.586;10.040;2023-04-23T16:43:12;2.67;;;2.47;;
7563;SDS011;3823;53.586;10.040;2023-04-23T16:45:38;3.85;;;3.50;;
7563;SDS011;3823;53.586;10.040;2023-04-23T16:48:03;4.93;;;3.22;;
7563;SDS011;3823;53.586;10.040;2023-04-23T16:50:29;3.47;;;2.97;;
7563;SDS011;3823;53.586;10.040;2023-04-23T16:52:55;4.03;;;3.38;;
7563;SDS011;3823;53.586;10.040;2023-04-23T16:55:20;4.07;;;3.80;;
7563;SDS011;3823;53.586;10.040;2023-04-23T16:57:46;3.53;;;3.20;;
7563;SDS011;3823;53.586;10.040;2023-04-23T17:00:12;5.55;;;3.08;;
7563;SDS011;3823;53.586;10.040;2023-04-23T17:02:38;4.32;;;4.00;;
7563;SDS011;3823;53.586;10.040;2023-04-23T17:05:05;4.57;;;4.18;;
7563;SDS011;3823;53.586;10.040;2023-04-23T17:07:31;4.63;;;4.22;;
7563;SDS011;3823;53.586;10.040;2023-04-23T17:09:57;5.32;;;4.25;;
7563;SDS011;3823;53.586;10.040;2023-04-23T17:12:22;5.57;;;4.57;;
7563;SDS011;3823;53.586;10.040;2023-04-23T17:14:48;5.63;;;5.13;;
7563;SDS011;3823;53.586;10.040;2023-04-23T17:17:14;9.15;;;7.95;;
7563;SDS011;3823;53.586;10.040;2023-04-23T17:19:40;9.25;;;7.10;;
7563;SDS011;3823;53.586;10.040;2023-04-23T17:22:05;6.30;;;5.65;;
7563;SDS011;3823;53.586;10.040;2023-04-23T17:24:32;12.20;;;6.78;;
7563;SDS011;3823;53.586;10.040;2023-04-23T17:26:58;5.30;;;4.80;;
7563;SDS011;3823;53.586;10.040;2023-04-23T17:29:24;9.68;;;6.82;;
7563;SDS011;3823;53.586;10.040;2023-04-23T17:31:50;6.05;;;5.40;;
7563;SDS011;3823;53.586;10.040;2023-04-23T17:34:16;8.73;;;6.07;;
7563;SDS011;3823;53.586;10.040;2023-04-23T17:36:42;7.32;;;6.53;;
7563;SDS011;3823;53.586;10.040;2023-04-23T17:39:07;6.15;;;5.55;;
7563;SDS011;3823;53.586;10.040;2023-04-23T17:41:33;6.78;;;5.53;;
7563;SDS011;3823;53.586;10.040;2023-04-23T17:43:58;6.07;;;4.85;;
7563;SDS011;3823;53.586;10.040;2023-04-23T17:46:24;4.50;;;4.18;;
7563;SDS011;3823;53.586;10.040;2023-04-23T17:48:49;5.93;;;5.43;;
7563;SDS011;3823;53.586;10.040;2023-04-23T17:51:15;6.57;;;5.28;;
7563;SDS011;3823;53.586;10.040;2023-04-23T17:53:42;6.55;;;5.85;;
7563;SDS011;3823;53.586;10.040;2023-04-23T17:56:12;7.00;;;6.32;;
7563;SDS011;3823;53.586;10.040;2023-04-23T17:58:40;6.43;;;5.75;;
7563;SDS011;3823;53.586;10.040;2023-04-23T18:01:06;7.80;;;6.03;;
7563;SDS011;3823;53.586;10.040;2023-04-23T18:03:33;8.07;;;5.43;;
7563;SDS011;3823;53.586;10.040;2023-04-23T18:05:59;10.85;;;6.82;;
7563;SDS011;3823;53.586;10.040;2023-04-23T18:08:25;6.55;;;5.88;;
7563;SDS011;3823;53.586;10.040;2023-04-23T18:10:51;6.00;;;5.47;;
7563;SDS011;3823;53.586;10.040;2023-04-23T18:13:16;7.43;;;6.18;;
7563;SDS011;3823;53.586;10.040;2023-04-23T18:15:42;7.30;;;6.60;;
7563;SDS011;3823;53.586;10.040;2023-04-23T18:18:13;9.25;;;6.60;;
7563;SDS011;3823;53.586;10.040;2023-04-23T18:20:39;9.18;;;6.97;;
7563;SDS011;3823;53.586;10.040;2023-04-23T18:23:05;6.65;;;6.05;;
7563;SDS011;3823;53.586;10.040;2023-04-23T18:25:31;6.05;;;5.55;;
7563;SDS011;3823;53.586;10.040;2023-04-23T18:27:56;7.60;;;6.20;;
7563;SDS011;3823;53.586;10.040;2023-04-23T18:30:22;12.93;;;7.60;;
7563;SDS011;3823;53.586;10.040;2023-04-23T18:32:53;6.68;;;6.00;;
7563;SDS011;3823;53.586;10.040;2023-04-23T18:35:26;8.57;;;7.05;;
7563;SDS011;3823;53.586;10.040;2023-04-23T18:37:52;9.90;;;6.53;;
7563;SDS011;3823;53.586;10.040;2023-04-23T18:40:23;7.03;;;6.32;;
7563;SDS011;3823;53.586;10.040;2023-04-23T18:42:48;6.15;;;5.55;;
7563;SDS011;3823;53.586;10.040;2023-04-23T18:45:14;7.22;;;6.15;;
7563;SDS011;3823;53.586;10.040;2023-04-23T18:47:47;5.95;;;5.40;;
7563;SDS011;3823;53.586;10.040;2023-04-23T18:50:28;6.97;;;6.38;;
7563;SDS011;3823;53.586;10.040;2023-04-23T18:53:03;6.78;;;5.95;;
7563;SDS011;3823;53.586;10.040;2023-04-23T18:55:29;9.18;;;6.30;;
7563;SDS011;3823;53.586;10.040;2023-04-23T18:57:55;7.30;;;5.47;;
7563;SDS011;3823;53.586;10.040;2023-04-23T19:00:21;7.20;;;6.22;;